createdAt,value
2023-04-27T00:00:24.597Z,7.72
2023-04-27T00:03:28.410Z,10.18
2023-04-27T00:06:30.754Z,8.00
2023-04-27T00:09:32.846Z,5.80
2023-04-27T00:12:35.080Z,8.80
2023-04-27T00:15:37.434Z,6.03
2023-04-27T00:18:39.950Z,9.37
2023-04-27T00:21:41.982Z,6.35
2023-04-27T00:24:43.961Z,9.70
2023-04-27T00:27:46.034Z,7.10
2023-04-27T00:30:48.948Z,6.80
2023-04-27T00:33:51.484Z,6.47
2023-04-27T00:36:53.940Z,8.27
2023-04-27T00:39:55.915Z,5.37
2023-04-27T00:42:57.983Z,7.82
2023-04-27T00:46:01.108Z,6.47
2023-04-27T00:49:03.091Z,5.73
2023-04-27T00:52:05.701Z,6.20
2023-04-27T00:55:08.367Z,6.28
2023-04-27T00:58:10.586Z,5.75
2023-04-27T01:01:12.898Z,6.75
2023-04-27T01:04:15.146Z,6.68
2023-04-27T01:07:17.909Z,5.30
2023-04-27T01:10:20.302Z,8.73
2023-04-27T01:13:22.288Z,8.13
2023-04-27T01:16:24.329Z,10.95
2023-04-27T01:19:26.793Z,10.90
2023-04-27T01:22:29.199Z,10.95
2023-04-27T01:25:31.811Z,10.80
2023-04-27T01:28:37.449Z,8.90
2023-04-27T01:31:39.658Z,8.43
2023-04-27T01:34:42.256Z,10.70
2023-04-27T01:37:44.393Z,6.75
2023-04-27T01:40:46.420Z,7.77
2023-04-27T01:43:48.772Z,8.18
2023-04-27T01:46:51.111Z,7.00
2023-04-27T01:49:53.147Z,8.50
2023-04-27T01:52:55.125Z,7.60
2023-04-27T01:55:57.369Z,8.23
2023-04-27T01:59:00.237Z,8.05
2023-04-27T02:02:02.427Z,8.20
2023-04-27T02:05:05.315Z,8.25
2023-04-27T02:08:07.486Z,7.85
2023-04-27T02:11:09.606Z,6.77
2023-04-27T02:14:11.783Z,6.32
2023-04-27T02:17:13.793Z,5.82
2023-04-27T02:20:16.197Z,8.57
2023-04-27T02:23:18.192Z,7.38
2023-04-27T02:26:20.680Z,8.23
2023-04-27T02:29:22.661Z,7.05
2023-04-27T02:32:25.286Z,6.32
2023-04-27T02:35:27.416Z,7.78
2023-04-27T02:38:30.117Z,10.77
2023-04-27T02:41:32.489Z,9.63
2023-04-27T02:44:34.661Z,9.40
2023-04-27T02:47:36.689Z,7.82
2023-04-27T02:50:42.325Z,8.37
2023-04-27T02:53:44.480Z,9.57
2023-04-27T02:56:46.434Z,7.13
2023-04-27T02:59:48.749Z,7.30
2023-04-27T03:02:51.192Z,7.40
2023-04-27T03:05:53.309Z,6.90
2023-04-27T03:08:55.350Z,10.75
2023-04-27T03:11:57.379Z,8.37
2023-04-27T03:15:00.610Z,7.57
2023-04-27T03:18:03.209Z,6.38
2023-04-27T03:21:09.224Z,7.80
2023-04-27T03:24:11.269Z,8.15
2023-04-27T03:27:13.359Z,7.38
2023-04-27T03:30:15.418Z,6.07
2023-04-27T03:33:18.501Z,9.63
2023-04-27T03:36:20.948Z,9.57
2023-04-27T03:39:23.334Z,10.65
2023-04-27T03:42:25.892Z,9.90
2023-04-27T03:45:28.000Z,11.85
2023-04-27T03:48:30.141Z,10.30
2023-04-27T03:51:33.135Z,8.83
2023-04-27T03:54:35.262Z,8.25
2023-04-27T03:57:37.323Z,7.85
2023-04-27T04:00:39.563Z,9.50
2023-04-27T04:03:42.183Z,9.88
2023-04-27T04:06:44.526Z,8.80
2023-04-27T04:09:47.594Z,7.65
2023-04-27T04:12:49.848Z,7.93
2023-04-27T04:16:00.923Z,7.93
2023-04-27T04:19:03.197Z,8.18
2023-04-27T04:22:05.895Z,10.93
2023-04-27T04:25:08.479Z,11.32
2023-04-27T04:28:11.025Z,10.70
2023-04-27T04:31:15.143Z,10.98
2023-04-27T04:34:17.678Z,11.43
2023-04-27T04:37:20.321Z,11.77
2023-04-27T04:40:22.468Z,14.52
2023-04-27T04:43:25.050Z,14.27
2023-04-27T04:46:27.367Z,15.52
2023-04-27T04:49:29.400Z,13.93
2023-04-27T04:52:31.514Z,13.37
2023-04-27T04:55:34.434Z,13.57
2023-04-27T04:58:36.968Z,14.13
2023-04-27T05:01:39.831Z,13.30
2023-04-27T05:04:42.160Z,15.73
2023-04-27T05:07:44.225Z,11.70
2023-04-27T05:10:52.851Z,12.15
2023-04-27T05:13:55.265Z,13.60
2023-04-27T05:16:57.290Z,12.93
2023-04-27T05:19:59.311Z,11.55
2023-04-27T05:23:02.256Z,8.07
2023-04-27T05:26:11.469Z,12.20
2023-04-27T05:29:14.259Z,13.27
2023-04-27T05:32:16.551Z,10.40
2023-04-27T05:35:19.152Z,9.20
2023-04-27T05:38:21.624Z,10.25
2023-04-27T05:41:24.022Z,13.23
2023-04-27T05:44:28.584Z,10.73
2023-04-27T05:47:31.083Z,7.18
2023-04-27T05:50:33.172Z,7.10
2023-04-27T05:53:35.150Z,8.43
2023-04-27T05:56:37.951Z,8.57
2023-04-27T05:59:43.497Z,8.32
2023-04-27T06:02:46.348Z,5.50
2023-04-27T06:05:53.656Z,9.23
2023-04-27T06:08:55.768Z,5.68
2023-04-27T06:12:00.570Z,8.68
2023-04-27T06:15:08.108Z,7.33
2023-04-27T06:18:10.252Z,7.50
2023-04-27T06:21:12.814Z,9.23
2023-04-27T06:24:15.341Z,7.30
2023-04-27T06:27:23.883Z,5.55
2023-04-27T06:30:26.785Z,6.70
2023-04-27T06:33:28.892Z,5.43
2023-04-27T06:36:31.793Z,6.05
2023-04-27T06:39:34.388Z,3.35
2023-04-27T06:42:36.933Z,5.68
2023-04-27T06:45:39.382Z,6.57
2023-04-27T06:48:41.467Z,5.88
2023-04-27T06:51:43.694Z,5.15
2023-04-27T06:54:46.861Z,7.00
2023-04-27T06:57:48.994Z,6.03
2023-04-27T07:00:51.787Z,4.22
2023-04-27T07:03:54.172Z,3.38
2023-04-27T07:06:57.372Z,4.67
2023-04-27T07:09:59.413Z,5.65
2023-04-27T07:13:01.895Z,5.53
2023-04-27T07:16:04.525Z,4.40
2023-04-27T07:19:06.639Z,5.77
2023-04-27T07:22:10.184Z,3.80
2023-04-27T07:25:12.714Z,4.03
2023-04-27T07:28:15.447Z,4.20
2023-04-27T07:31:17.791Z,6.13
2023-04-27T07:34:20.416Z,7.70
2023-04-27T07:37:22.951Z,4.38
2023-04-27T07:40:25.816Z,4.97
2023-04-27T07:43:28.292Z,4.10
2023-04-27T07:46:31.791Z,3.00
2023-04-27T07:49:35.550Z,3.67
2023-04-27T07:52:38.090Z,4.00
2023-04-27T07:55:41.471Z,4.47
2023-04-27T07:58:44.082Z,5.20
2023-04-27T08:01:46.324Z,5.60
2023-04-27T08:04:49.812Z,3.30
2023-04-27T08:07:54.582Z,6.07
2023-04-27T08:10:57.103Z,6.43
2023-04-27T08:13:59.717Z,3.83
2023-04-27T08:17:02.497Z,7.03
2023-04-27T08:20:06.938Z,3.22
2023-04-27T08:23:09.486Z,3.53
2023-04-27T08:26:15.855Z,9.68
2023-04-27T08:29:27.058Z,40.53
2023-04-27T08:32:31.357Z,12.30
2023-04-27T08:35:34.094Z,3.90
2023-04-27T08:38:36.426Z,25.98
2023-04-27T08:41:41.480Z,3.72
2023-04-27T08:44:44.093Z,77.67
2023-04-27T08:47:49.658Z,34.60
2023-04-27T08:51:11.256Z,4.57
2023-04-27T08:55:05.488Z,3.72
2023-04-27T08:58:09.302Z,6.53
2023-04-27T09:01:14.149Z,4.10
2023-04-27T09:04:17.896Z,2.67
2023-04-27T09:07:20.867Z,5.05
2023-04-27T09:10:23.460Z,3.17
2023-04-27T09:13:34.991Z,2.78
2023-04-27T09:16:37.245Z,3.00
2023-04-27T09:19:39.909Z,5.37
2023-04-27T09:22:43.013Z,4.57
2023-04-27T09:25:45.330Z,3.50
2023-04-27T09:28:48.420Z,5.45
2023-04-27T09:31:50.777Z,3.87
2023-04-27T09:34:53.092Z,3.13
2023-04-27T09:37:55.765Z,2.45
2023-04-27T09:41:06.416Z,3.72
2023-04-27T09:44:14.079Z,4.22
2023-04-27T09:47:16.589Z,3.73
2023-04-27T09:50:18.978Z,4.23
2023-04-27T09:53:24.321Z,3.15
2023-04-27T09:56:35.405Z,5.38
2023-04-27T09:59:56.124Z,4.45
2023-04-27T10:02:58.811Z,4.50
2023-04-27T10:06:04.260Z,3.13
2023-04-27T10:09:06.875Z,3.65
2023-04-27T10:12:21.812Z,3.58
2023-04-27T10:15:26.208Z,5.20
2023-04-27T10:18:31.624Z,3.17
2023-04-27T10:21:33.710Z,3.63
2023-04-27T10:24:36.958Z,4.22
2023-04-27T10:27:39.759Z,4.32
2023-04-27T10:30:45.367Z,3.33
2023-04-27T10:33:47.721Z,3.43
2023-04-27T10:36:50.498Z,2.93
2023-04-27T10:42:57.008Z,3.00
2023-04-27T10:46:12.951Z,4.53
2023-04-27T10:49:16.448Z,2.90
2023-04-27T10:52:19.080Z,3.60
2023-04-27T10:55:28.657Z,5.38
2023-04-27T10:58:47.535Z,3.47
2023-04-27T11:01:51.516Z,3.65
2023-04-27T11:04:54.274Z,4.73
2023-04-27T11:08:09.310Z,4.27
2023-04-27T11:11:16.574Z,3.63
2023-04-27T11:14:22.433Z,4.40
2023-04-27T11:17:31.047Z,4.70
2023-04-27T11:20:33.353Z,3.83
2023-04-27T11:23:39.821Z,12.17
2023-04-27T11:26:42.516Z,3.95
2023-04-27T11:29:45.089Z,3.65
2023-04-27T11:32:48.640Z,2.45
2023-04-27T11:35:51.448Z,2.70
2023-04-27T11:38:57.566Z,2.80
2023-04-27T11:42:16.609Z,6.38
2023-04-27T11:45:18.901Z,2.15
2023-04-27T11:48:23.094Z,3.63
2023-04-27T11:51:25.366Z,3.97
2023-04-27T11:54:31.372Z,2.30
2023-04-27T11:57:33.824Z,2.92
2023-04-27T12:00:36.522Z,5.05
2023-04-27T12:03:39.041Z,5.07
2023-04-27T12:06:41.392Z,5.17
2023-04-27T12:09:44.034Z,2.37
2023-04-27T12:12:46.828Z,4.22
2023-04-27T12:15:49.505Z,3.60
2023-04-27T12:18:52.438Z,4.50
2023-04-27T12:21:55.530Z,2.40
2023-04-27T12:25:10.039Z,4.40
2023-04-27T12:28:30.771Z,2.78
2023-04-27T12:31:38.829Z,4.60
2023-04-27T12:34:42.999Z,5.50
2023-04-27T12:37:45.466Z,4.07
2023-04-27T12:40:47.965Z,2.70
2023-04-27T12:43:51.566Z,4.97
2023-04-27T12:46:53.957Z,4.30
2023-04-27T12:49:56.634Z,4.50
2023-04-27T12:52:59.626Z,3.50
2023-04-27T12:56:01.990Z,3.87
2023-04-27T12:59:08.920Z,2.10
2023-04-27T13:02:11.465Z,6.22
2023-04-27T13:05:13.683Z,2.80
2023-04-27T13:08:16.111Z,2.87
2023-04-27T13:11:18.967Z,4.60
2023-04-27T13:14:21.211Z,4.30
2023-04-27T13:17:23.485Z,4.40
2023-04-27T13:20:25.597Z,3.33
2023-04-27T13:23:28.243Z,3.17
2023-04-27T13:26:30.589Z,5.40
2023-04-27T13:29:32.711Z,2.28
2023-04-27T13:32:34.997Z,5.50
2023-04-27T13:35:37.197Z,3.13
2023-04-27T13:38:39.817Z,3.17
2023-04-27T13:41:43.348Z,4.83
2023-04-27T13:44:46.256Z,7.47
2023-04-27T13:47:48.457Z,6.40
2023-04-27T13:50:51.193Z,7.88
2023-04-27T13:53:53.754Z,4.10
2023-04-27T13:56:56.375Z,4.67
2023-04-27T14:00:01.456Z,5.50
2023-04-27T14:03:09.895Z,4.97
2023-04-27T14:06:12.531Z,5.18
2023-04-27T14:09:15.757Z,4.40
2023-04-27T14:12:18.040Z,3.73
2023-04-27T14:15:20.480Z,10.55
2023-04-27T14:18:29.768Z,4.70
2023-04-27T14:21:34.594Z,5.80
2023-04-27T14:24:36.920Z,5.10
2023-04-27T14:27:39.769Z,4.73
2023-04-27T14:30:42.314Z,5.55
2023-04-27T14:33:44.674Z,4.30
2023-04-27T14:36:47.223Z,3.15
2023-04-27T14:39:50.726Z,3.07
2023-04-27T14:42:52.801Z,2.83
2023-04-27T14:46:01.866Z,4.65
2023-04-27T14:49:10.776Z,9.30
2023-04-27T14:52:12.846Z,3.65
2023-04-27T14:55:16.429Z,5.53
2023-04-27T14:58:19.152Z,3.77
2023-04-27T15:01:22.063Z,3.58
2023-04-27T15:04:24.444Z,2.80
2023-04-27T15:07:27.050Z,4.40
2023-04-27T15:10:29.324Z,7.37
2023-04-27T15:13:31.956Z,2.47
2023-04-27T15:16:34.247Z,2.42
2023-04-27T15:19:36.934Z,3.08
2023-04-27T15:22:39.775Z,2.95
2023-04-27T15:25:42.837Z,4.80
2023-04-27T15:28:45.737Z,3.97
2023-04-27T15:31:48.268Z,4.85
2023-04-27T15:34:51.988Z,2.22
2023-04-27T15:37:54.637Z,4.43
2023-04-27T15:40:56.806Z,3.67
2023-04-27T15:43:59.388Z,3.57
2023-04-27T15:47:02.194Z,3.85
2023-04-27T15:50:05.398Z,2.47
2023-04-27T15:53:07.530Z,4.75
2023-04-27T15:56:09.647Z,3.27
2023-04-27T15:59:12.343Z,3.70
2023-04-27T16:02:15.034Z,5.45
2023-04-27T16:05:17.795Z,7.85
2023-04-27T16:08:20.331Z,7.10
2023-04-27T16:11:23.335Z,2.83
2023-04-27T16:14:26.117Z,3.30
2023-04-27T16:17:33.271Z,2.20
2023-04-27T16:20:42.171Z,3.97
2023-04-27T16:23:45.363Z,3.10
2023-04-27T16:26:47.876Z,4.33
2023-04-27T16:29:50.520Z,4.57
2023-04-27T16:32:53.199Z,5.35
2023-04-27T16:35:57.356Z,4.80
2023-04-27T16:39:00.094Z,5.85
2023-04-27T16:42:03.216Z,3.67
2023-04-27T16:45:07.173Z,2.60
2023-04-27T16:48:12.539Z,3.83
2023-04-27T16:51:15.244Z,4.18
2023-04-27T16:54:17.762Z,5.10
2023-04-27T16:57:20.495Z,4.80
2023-04-27T17:00:22.769Z,3.97
2023-04-27T17:03:25.065Z,4.00
2023-04-27T17:06:28.221Z,4.63
2023-04-27T17:09:30.360Z,6.35
2023-04-27T17:12:32.623Z,3.90
2023-04-27T17:15:34.707Z,4.43
2023-04-27T17:18:37.822Z,3.28
2023-04-27T17:21:39.999Z,3.17
2023-04-27T17:24:42.258Z,5.28
2023-04-27T17:27:44.359Z,3.20
2023-04-27T17:30:46.884Z,4.20
2023-04-27T17:33:49.423Z,3.33
2023-04-27T17:36:51.685Z,5.63
2023-04-27T17:39:54.709Z,5.00
2023-04-27T17:42:57.946Z,7.37
2023-04-27T17:46:00.001Z,7.53
2023-04-27T17:49:02.141Z,5.97
2023-04-27T17:52:04.438Z,7.70
2023-04-27T17:55:06.869Z,18.77
2023-04-27T17:58:11.156Z,19.00
2023-04-27T18:01:13.557Z,19.80
2023-04-27T18:04:15.769Z,15.77
2023-04-27T18:07:19.333Z,10.30
2023-04-27T18:10:21.698Z,10.18
2023-04-27T18:13:24.262Z,7.83
2023-04-27T18:16:26.634Z,4.97
2023-04-27T18:19:29.037Z,7.60
2023-04-27T18:22:31.096Z,7.25
2023-04-27T18:25:33.480Z,6.03
2023-04-27T18:28:37.913Z,6.63
2023-04-27T18:31:40.604Z,7.77
2023-04-27T18:34:43.581Z,9.63
2023-04-27T18:37:48.343Z,16.58
2023-04-27T18:40:50.914Z,39.45
2023-04-27T18:43:53.019Z,31.90
2023-04-27T18:46:55.008Z,29.40
2023-04-27T18:49:57.001Z,21.73
2023-04-27T18:52:59.381Z,18.90
2023-04-27T18:56:02.269Z,19.23
2023-04-27T18:59:05.587Z,15.25
2023-04-27T19:02:08.791Z,14.63
2023-04-27T19:05:13.361Z,14.32
2023-04-27T19:08:16.110Z,16.63
2023-04-27T19:11:22.135Z,18.73
2023-04-27T19:14:25.080Z,15.45
2023-04-27T19:17:27.519Z,26.10
2023-04-27T19:20:30.229Z,34.07
2023-04-27T19:23:32.231Z,24.15
2023-04-27T19:26:34.865Z,21.35
2023-04-27T19:29:48.235Z,14.55
2023-04-27T19:32:50.739Z,16.97
2023-04-27T19:35:53.148Z,22.63
2023-04-27T19:38:55.705Z,17.20
2023-04-27T19:41:57.679Z,43.25
2023-04-27T19:45:01.136Z,30.67
2023-04-27T19:48:03.592Z,16.00
2023-04-27T19:51:10.206Z,15.75
2023-04-27T19:54:12.233Z,24.35
2023-04-27T19:57:14.354Z,15.13
2023-04-27T20:00:16.472Z,17.67
2023-04-27T20:03:19.095Z,15.45
2023-04-27T20:06:21.788Z,18.00
2023-04-27T20:09:24.178Z,17.08
2023-04-27T20:12:47.553Z,16.45
2023-04-27T20:15:48.853Z,15.70
2023-04-27T20:18:51.835Z,17.27
2023-04-27T20:21:54.108Z,21.50
2023-04-27T20:24:59.373Z,24.05
2023-04-27T20:28:01.524Z,20.77
2023-04-27T20:31:04.057Z,19.83
2023-04-27T20:34:06.537Z,20.27
2023-04-27T20:37:09.704Z,19.98
2023-04-27T20:40:17.328Z,19.90
2023-04-27T20:43:19.614Z,18.63
2023-04-27T20:46:21.625Z,19.50
2023-04-27T20:49:34.485Z,16.23
2023-04-27T20:52:38.313Z,16.35
2023-04-27T20:55:41.075Z,16.35
2023-04-27T20:58:43.031Z,17.47
2023-04-27T21:01:45.122Z,13.90
2023-04-27T21:04:47.564Z,15.38
2023-04-27T21:07:49.695Z,13.25
2023-04-27T21:10:51.811Z,13.80
2023-04-27T21:13:54.185Z,18.75
2023-04-27T21:16:56.620Z,15.55
2023-04-27T21:19:58.645Z,17.83
2023-04-27T21:23:00.654Z,15.77
2023-04-27T21:26:02.715Z,12.93
2023-04-27T21:29:06.056Z,13.03
2023-04-27T21:32:08.336Z,16.42
2023-04-27T21:35:10.374Z,19.88
2023-04-27T21:38:12.472Z,17.95
2023-04-27T21:41:15.711Z,17.35
2023-04-27T21:44:17.828Z,19.15
2023-04-27T21:47:20.030Z,17.58
2023-04-27T21:50:22.050Z,18.17
2023-04-27T21:53:24.076Z,18.02
2023-04-27T21:56:26.472Z,18.33
2023-04-27T21:59:28.831Z,13.23
2023-04-27T22:02:31.099Z,14.98
2023-04-27T22:05:37.157Z,16.95
2023-04-27T22:08:39.266Z,16.02
2023-04-27T22:11:41.625Z,16.02
2023-04-27T22:14:44.019Z,18.23
2023-04-27T22:17:46.168Z,14.43
2023-04-27T22:20:49.437Z,17.77
2023-04-27T22:23:51.467Z,16.25
2023-04-27T22:26:53.512Z,16.67
2023-04-27T22:29:55.502Z,14.77
2023-04-27T22:32:57.713Z,19.50
2023-04-27T22:35:59.790Z,16.30
2023-04-27T22:39:02.129Z,19.13
2023-04-27T22:42:04.187Z,12.40
2023-04-27T22:45:06.622Z,13.43
2023-04-27T22:48:08.734Z,12.70
2023-04-27T22:51:10.910Z,14.57
2023-04-27T22:54:13.105Z,17.33
2023-04-27T22:57:15.137Z,15.75
2023-04-27T23:00:17.620Z,12.70
2023-04-27T23:03:19.971Z,15.88
2023-04-27T23:06:22.205Z,14.02
2023-04-27T23:09:24.177Z,13.63
2023-04-27T23:12:26.990Z,13.23
2023-04-27T23:15:29.083Z,18.77
2023-04-27T23:18:31.501Z,12.43
2023-04-27T23:21:33.796Z,13.60
2023-04-27T23:24:35.794Z,13.85
2023-04-27T23:27:37.962Z,14.00
2023-04-27T23:30:40.553Z,19.13
2023-04-27T23:33:43.190Z,13.93
2023-04-27T23:36:45.202Z,14.88
2023-04-27T23:39:47.675Z,19.55
2023-04-27T23:42:51.488Z,15.90
2023-04-27T23:45:54.256Z,12.68
2023-04-27T23:48:56.511Z,11.52
2023-04-27T23:51:58.885Z,14.10
2023-04-27T23:55:01.321Z,15.65
2023-04-27T23:58:03.810Z,14.48
